sensor_id;sensor_type;location;lat;lon;timestamp;pressure;altitude;pressure_sealevel;temperature;humidity
73824;BME280;62154;54.914;73.444;2022-12-16T00:01:42;102929.19;;;-24.02;75.86
73824;BME280;62154;54.914;73.444;2022-12-16T00:04:09;102935.44;;;-23.99;75.72
73824;BME280;62154;54.914;73.444;2022-12-16T00:06:36;102922.22;;;-24.02;75.72
73824;BME280;62154;54.914;73.444;2022-12-16T00:09:06;102830.28;;;-24.50;75.70
73824;BME280;62154;54.914;73.444;2022-12-16T00:11:33;102857.34;;;-24.28;75.40
73824;BME280;62154;54.914;73.444;2022-12-16T00:14:01;102926.41;;;-23.83;75.34
73824;BME280;62154;54.914;73.444;2022-12-16T00:16:28;102921.16;;;-23.83;75.11
73824;BME280;62154;54.914;73.444;2022-12-16T00:18:55;102905.94;;;-23.93;74.98
73824;BME280;62154;54.914;73.444;2022-12-16T00:21:23;102923.75;;;-23.84;74.88
73824;BME280;62154;54.914;73.444;2022-12-16T00:23:56;102923.06;;;-23.78;74.92
73824;BME280;62154;54.914;73.444;2022-12-16T00:26:23;102925.69;;;-23.78;75.07
73824;BME280;62154;54.914;73.444;2022-12-16T00:29:01;102932.88;;;-23.74;74.83
73824;BME280;62154;54.914;73.444;2022-12-16T00:31:31;102900.09;;;-23.86;74.66
73824;BME280;62154;54.914;73.444;2022-12-16T00:33:58;102916.91;;;-23.80;74.23
73824;BME280;62154;54.914;73.444;2022-12-16T00:36:26;102907.53;;;-23.74;74.36
73824;BME280;62154;54.914;73.444;2022-12-16T00:38:54;102895.13;;;-23.78;74.57
73824;BME280;62154;54.914;73.444;2022-12-16T00:41:21;102900.38;;;-23.78;73.83
73824;BME280;62154;54.914;73.444;2022-12-16T00:43:48;102892.59;;;-23.99;73.86
73824;BME280;62154;54.914;73.444;2022-12-16T00:46:16;102873.41;;;-23.98;74.11
73824;BME280;62154;54.914;73.444;2022-12-16T00:48:43;102828.63;;;-24.25;73.91
73824;BME280;62154;54.914;73.444;2022-12-16T00:51:11;102813.13;;;-24.42;73.56
73824;BME280;62154;54.914;73.444;2022-12-16T00:53:38;102872.91;;;-24.10;73.86
73824;BME280;62154;54.914;73.444;2022-12-16T00:56:07;102887.75;;;-24.11;73.96
73824;BME280;62154;54.914;73.444;2022-12-16T00:58:36;102858.63;;;-24.19;74.01
73824;BME280;62154;54.914;73.444;2022-12-16T01:01:04;102880.53;;;-24.17;73.87
73824;BME280;62154;54.914;73.444;2022-12-16T01:03:37;102863.38;;;-24.31;74.05
73824;BME280;62154;54.914;73.444;2022-12-16T01:06:15;102790.97;;;-24.73;74.13
73824;BME280;62154;54.914;73.444;2022-12-16T01:08:43;102773.09;;;-24.83;74.03
73824;BME280;62154;54.914;73.444;2022-12-16T01:11:18;102866.91;;;-24.29;74.45
73824;BME280;62154;54.914;73.444;2022-12-16T01:13:51;102850.38;;;-24.28;74.19
73824;BME280;62154;54.914;73.444;2022-12-16T01:16:19;102852.88;;;-24.31;74.29
73824;BME280;62154;54.914;73.444;2022-12-16T01:18:46;102864.91;;;-24.36;74.20
73824;BME280;62154;54.914;73.444;2022-12-16T01:21:23;102870.16;;;-24.36;74.28
73824;BME280;62154;54.914;73.444;2022-12-16T01:23:51;102858.69;;;-24.38;73.81
73824;BME280;62154;54.914;73.444;2022-12-16T01:26:18;102665.25;;;-25.39;73.90
73824;BME280;62154;54.914;73.444;2022-12-16T01:28:47;102829.25;;;-24.54;74.01
73824;BME280;62154;54.914;73.444;2022-12-16T01:31:16;102866.03;;;-24.29;73.75
73824;BME280;62154;54.914;73.444;2022-12-16T01:33:44;102857.00;;;-24.38;73.82
73824;BME280;62154;54.914;73.444;2022-12-16T01:36:11;102867.63;;;-24.33;73.76
73824;BME280;62154;54.914;73.444;2022-12-16T01:38:41;102863.94;;;-24.38;73.66
73824;BME280;62154;54.914;73.444;2022-12-16T01:41:11;102847.50;;;-24.34;73.70
73824;BME280;62154;54.914;73.444;2022-12-16T01:43:39;102832.19;;;-24.46;73.68
73824;BME280;62154;54.914;73.444;2022-12-16T01:49:03;102846.56;;;-24.36;73.63
73824;BME280;62154;54.914;73.444;2022-12-16T01:51:35;102850.13;;;-24.34;73.49
73824;BME280;62154;54.914;73.444;2022-12-16T01:56:57;102821.06;;;-24.40;73.15
73824;BME280;62154;54.914;73.444;2022-12-16T01:59:28;102821.69;;;-24.46;73.49
73824;BME280;62154;54.914;73.444;2022-12-16T02:02:02;102806.75;;;-24.49;73.64
73824;BME280;62154;54.914;73.444;2022-12-16T02:04:41;102823.75;;;-24.39;73.46
73824;BME280;62154;54.914;73.444;2022-12-16T02:07:28;102715.25;;;-25.10;73.41
73824;BME280;62154;54.914;73.444;2022-12-16T02:09:56;102728.84;;;-24.98;73.59
73824;BME280;62154;54.914;73.444;2022-12-16T02:12:58;102810.09;;;-24.53;73.66
73824;BME280;62154;54.914;73.444;2022-12-16T02:18:59;102791.84;;;-24.72;73.68
73824;BME280;62154;54.914;73.444;2022-12-16T02:24:29;102803.03;;;-24.76;74.30
73824;BME280;62154;54.914;73.444;2022-12-16T02:30:37;102719.16;;;-25.22;74.26
73824;BME280;62154;54.914;73.444;2022-12-16T02:36:00;102780.75;;;-24.88;74.20
73824;BME280;62154;54.914;73.444;2022-12-16T02:41:52;102806.88;;;-24.68;74.04
73824;BME280;62154;54.914;73.444;2022-12-16T02:43:56;102805.31;;;-24.63;74.42
73824;BME280;62154;54.914;73.444;2022-12-16T02:46:46;102825.41;;;-24.62;74.30
73824;BME280;62154;54.914;73.444;2022-12-16T02:51:59;102776.91;;;-24.75;74.13
73824;BME280;62154;54.914;73.444;2022-12-16T02:54:32;102795.44;;;-24.70;74.25
73824;BME280;62154;54.914;73.444;2022-12-16T03:00:00;102811.41;;;-24.64;74.39
73824;BME280;62154;54.914;73.444;2022-12-16T03:02:52;102793.94;;;-24.63;74.26
73824;BME280;62154;54.914;73.444;2022-12-16T03:08:04;102726.28;;;-24.97;74.12
73824;BME280;62154;54.914;73.444;2022-12-16T03:10:43;102798.88;;;-24.49;74.03
73824;BME280;62154;54.914;73.444;2022-12-16T03:13:12;102826.41;;;-24.37;73.97
73824;BME280;62154;54.914;73.444;2022-12-16T03:15:40;102802.47;;;-24.46;73.77
73824;BME280;62154;54.914;73.444;2022-12-16T03:18:11;102794.09;;;-24.38;74.16
73824;BME280;62154;54.914;73.444;2022-12-16T03:20:49;102756.47;;;-24.61;74.09
73824;BME280;62154;54.914;73.444;2022-12-16T03:23:27;102824.97;;;-24.06;73.99
73824;BME280;62154;54.914;73.444;2022-12-16T03:26:01;102828.53;;;-24.06;73.86
73824;BME280;62154;54.914;73.444;2022-12-16T03:31:13;102851.75;;;-23.92;73.09
73824;BME280;62154;54.914;73.444;2022-12-16T03:33:56;102762.50;;;-24.41;73.25
73824;BME280;62154;54.914;73.444;2022-12-16T03:36:37;102840.53;;;-23.88;73.82
73824;BME280;62154;54.914;73.444;2022-12-16T03:39:18;102830.97;;;-23.86;73.61
73824;BME280;62154;54.914;73.444;2022-12-16T03:41:50;102811.91;;;-23.82;73.33
73824;BME280;62154;54.914;73.444;2022-12-16T03:44:22;102803.91;;;-23.85;72.66
73824;BME280;62154;54.914;73.444;2022-12-16T03:46:56;102817.44;;;-23.74;72.64
73824;BME280;62154;54.914;73.444;2022-12-16T03:49:24;102734.19;;;-24.27;72.57
73824;BME280;62154;54.914;73.444;2022-12-16T03:51:57;102815.41;;;-23.82;72.28
73824;BME280;62154;54.914;73.444;2022-12-16T03:54:34;102811.00;;;-23.83;72.29
73824;BME280;62154;54.914;73.444;2022-12-16T03:57:02;102796.81;;;-23.88;72.61
73824;BME280;62154;54.914;73.444;2022-12-16T03:59:29;102804.72;;;-23.86;72.16
73824;BME280;62154;54.914;73.444;2022-12-16T04:01:57;102817.91;;;-23.85;72.11
73824;BME280;62154;54.914;73.444;2022-12-16T04:04:25;102818.75;;;-23.86;71.48
73824;BME280;62154;54.914;73.444;2022-12-16T04:06:53;102821.72;;;-23.76;72.26
73824;BME280;62154;54.914;73.444;2022-12-16T04:09:49;102826.19;;;-23.74;71.72
73824;BME280;62154;54.914;73.444;2022-12-16T04:12:17;102734.88;;;-24.33;71.66
73824;BME280;62154;54.914;73.444;2022-12-16T04:15:04;102745.81;;;-24.20;71.35
73824;BME280;62154;54.914;73.444;2022-12-16T04:17:51;102820.16;;;-23.71;71.46
73824;BME280;62154;54.914;73.444;2022-12-16T04:20:39;102807.78;;;-23.75;71.33
73824;BME280;62154;54.914;73.444;2022-12-16T04:23:29;102722.38;;;-24.16;71.17
73824;BME280;62154;54.914;73.444;2022-12-16T04:26:16;102832.97;;;-23.56;70.83
73824;BME280;62154;54.914;73.444;2022-12-16T04:28:43;102800.91;;;-23.72;70.47
73824;BME280;62154;54.914;73.444;2022-12-16T04:31:11;102744.59;;;-24.06;70.59
73824;BME280;62154;54.914;73.444;2022-12-16T04:33:38;102831.91;;;-23.61;70.35
73824;BME280;62154;54.914;73.444;2022-12-16T04:36:25;102772.25;;;-23.90;70.29
73824;BME280;62154;54.914;73.444;2022-12-16T04:39:10;102820.41;;;-23.65;69.86
73824;BME280;62154;54.914;73.444;2022-12-16T04:41:56;102802.84;;;-23.66;70.25
73824;BME280;62154;54.914;73.444;2022-12-16T04:44:44;102806.44;;;-23.64;69.72
73824;BME280;62154;54.914;73.444;2022-12-16T04:47:30;102812.34;;;-23.70;69.72
73824;BME280;62154;54.914;73.444;2022-12-16T04:50:16;102718.94;;;-24.15;70.12
73824;BME280;62154;54.914;73.444;2022-12-16T04:53:01;102812.25;;;-23.49;70.06
73824;BME280;62154;54.914;73.444;2022-12-16T04:55:47;102812.00;;;-23.55;68.89
73824;BME280;62154;54.914;73.444;2022-12-16T04:58:33;102820.28;;;-23.68;68.39
73824;BME280;62154;54.914;73.444;2022-12-16T05:01:18;102794.59;;;-23.77;68.98
73824;BME280;62154;54.914;73.444;2022-12-16T05:04:04;102804.03;;;-23.58;69.24
73824;BME280;62154;54.914;73.444;2022-12-16T05:06:49;102800.19;;;-23.68;68.28
73824;BME280;62154;54.914;73.444;2022-12-16T05:09:35;102797.84;;;-23.60;68.35
73824;BME280;62154;54.914;73.444;2022-12-16T05:12:21;102766.94;;;-23.67;68.62
73824;BME280;62154;54.914;73.444;2022-12-16T05:15:07;102777.72;;;-23.59;68.10
73824;BME280;62154;54.914;73.444;2022-12-16T05:17:52;102765.06;;;-23.71;68.15
73824;BME280;62154;54.914;73.444;2022-12-16T05:20:38;102715.09;;;-24.00;68.11
73824;BME280;62154;54.914;73.444;2022-12-16T05:23:23;102771.28;;;-23.69;67.84
73824;BME280;62154;54.914;73.444;2022-12-16T05:26:09;102759.59;;;-23.77;67.57
73824;BME280;62154;54.914;73.444;2022-12-16T05:28:55;102748.94;;;-23.82;67.79
73824;BME280;62154;54.914;73.444;2022-12-16T05:31:40;102678.81;;;-24.36;67.46
73824;BME280;62154;54.914;73.444;2022-12-16T05:34:26;102728.44;;;-23.94;67.86
73824;BME280;62154;54.914;73.444;2022-12-16T05:37:11;102667.88;;;-24.49;67.63
73824;BME280;62154;54.914;73.444;2022-12-16T05:39:57;102747.88;;;-24.11;67.78
73824;BME280;62154;54.914;73.444;2022-12-16T05:42:44;102737.47;;;-24.10;68.13
73824;BME280;62154;54.914;73.444;2022-12-16T05:45:31;102678.91;;;-24.33;68.73
73824;BME280;62154;54.914;73.444;2022-12-16T05:48:16;102732.56;;;-24.01;68.34
73824;BME280;62154;54.914;73.444;2022-12-16T05:51:02;102642.34;;;-24.54;67.97
73824;BME280;62154;54.914;73.444;2022-12-16T05:53:47;102722.28;;;-23.94;68.12
73824;BME280;62154;54.914;73.444;2022-12-16T05:56:33;102717.06;;;-23.94;68.26
73824;BME280;62154;54.914;73.444;2022-12-16T05:59:18;102723.81;;;-23.75;68.39
73824;BME280;62154;54.914;73.444;2022-12-16T06:02:05;102700.53;;;-23.92;68.51
73824;BME280;62154;54.914;73.444;2022-12-16T06:05:11;102727.06;;;-23.57;67.55
73824;BME280;62154;54.914;73.444;2022-12-16T06:07:57;102713.63;;;-23.66;67.40
73824;BME280;62154;54.914;73.444;2022-12-16T06:10:42;102727.81;;;-23.61;67.91
73824;BME280;62154;54.914;73.444;2022-12-16T06:13:28;102714.06;;;-23.54;68.38
73824;BME280;62154;54.914;73.444;2022-12-16T06:16:13;102706.38;;;-23.49;67.90
73824;BME280;62154;54.914;73.444;2022-12-16T06:18:59;102714.78;;;-23.34;67.72
73824;BME280;62154;54.914;73.444;2022-12-16T06:21:45;102713.97;;;-23.31;67.67
73824;BME280;62154;54.914;73.444;2022-12-16T06:24:30;102715.91;;;-23.25;67.52
73824;BME280;62154;54.914;73.444;2022-12-16T06:27:16;102698.28;;;-23.29;67.66
73824;BME280;62154;54.914;73.444;2022-12-16T06:30:02;102683.50;;;-23.26;67.46
73824;BME280;62154;54.914;73.444;2022-12-16T06:32:52;102701.81;;;-23.00;68.07
73824;BME280;62154;54.914;73.444;2022-12-16T06:35:38;102645.31;;;-23.16;68.24
73824;BME280;62154;54.914;73.444;2022-12-16T06:38:24;102720.53;;;-22.62;67.55
73824;BME280;62154;54.914;73.444;2022-12-16T06:41:09;102714.16;;;-22.70;66.74
73824;BME280;62154;54.914;73.444;2022-12-16T06:43:55;102718.38;;;-22.75;66.63
73824;BME280;62154;54.914;73.444;2022-12-16T06:46:40;102711.13;;;-22.83;66.48
73824;BME280;62154;54.914;73.444;2022-12-16T06:49:26;102655.75;;;-23.18;66.42
73824;BME280;62154;54.914;73.444;2022-12-16T06:52:12;102634.41;;;-23.28;66.28
73824;BME280;62154;54.914;73.444;2022-12-16T06:54:57;102725.19;;;-22.82;66.47
73824;BME280;62154;54.914;73.444;2022-12-16T06:57:43;102703.91;;;-22.90;66.68
73824;BME280;62154;54.914;73.444;2022-12-16T07:00:28;102736.16;;;-22.68;66.75
73824;BME280;62154;54.914;73.444;2022-12-16T07:03:14;102732.09;;;-22.57;67.18
73824;BME280;62154;54.914;73.444;2022-12-16T07:06:00;102725.38;;;-22.47;67.59
73824;BME280;62154;54.914;73.444;2022-12-16T07:08:45;102632.13;;;-22.89;67.56
73824;BME280;62154;54.914;73.444;2022-12-16T07:11:31;102716.28;;;-22.28;66.75
73824;BME280;62154;54.914;73.444;2022-12-16T07:14:16;102723.78;;;-22.11;67.28
73824;BME280;62154;54.914;73.444;2022-12-16T07:17:02;102644.06;;;-22.41;67.08
73824;BME280;62154;54.914;73.444;2022-12-16T07:19:47;102487.53;;;-23.24;66.61
73824;BME280;62154;54.914;73.444;2022-12-16T07:22:33;102698.19;;;-21.87;67.04
73824;BME280;62154;54.914;73.444;2022-12-16T07:25:18;102689.81;;;-21.72;67.16
73824;BME280;62154;54.914;73.444;2022-12-16T07:28:04;102670.09;;;-21.88;65.99
73824;BME280;62154;54.914;73.444;2022-12-16T07:30:49;102672.69;;;-21.89;65.73
73824;BME280;62154;54.914;73.444;2022-12-16T07:33:35;102682.41;;;-21.87;65.82
73824;BME280;62154;54.914;73.444;2022-12-16T07:36:20;102693.44;;;-21.98;65.65
73824;BME280;62154;54.914;73.444;2022-12-16T07:39:06;102674.25;;;-21.96;66.29
73824;BME280;62154;54.914;73.444;2022-12-16T07:42:02;102654.03;;;-21.97;66.32
73824;BME280;62154;54.914;73.444;2022-12-16T07:44:50;102623.75;;;-22.14;65.60
73824;BME280;62154;54.914;73.444;2022-12-16T07:47:50;102665.63;;;-21.90;65.30
73824;BME280;62154;54.914;73.444;2022-12-16T07:50:46;102604.19;;;-22.24;65.78
73824;BME280;62154;54.914;73.444;2022-12-16T07:53:37;102622.03;;;-22.12;65.81
73824;BME280;62154;54.914;73.444;2022-12-16T07:56:22;102645.00;;;-21.73;66.26
73824;BME280;62154;54.914;73.444;2022-12-16T07:59:09;102650.41;;;-21.69;65.66
73824;BME280;62154;54.914;73.444;2022-12-16T08:01:55;102642.88;;;-21.88;64.63
73824;BME280;62154;54.914;73.444;2022-12-16T08:04:41;102655.25;;;-21.86;64.90
73824;BME280;62154;54.914;73.444;2022-12-16T08:07:36;102653.22;;;-21.96;65.11
73824;BME280;62154;54.914;73.444;2022-12-16T08:10:23;102646.44;;;-22.18;64.91
73824;BME280;62154;54.914;73.444;2022-12-16T08:13:14;102659.75;;;-22.12;65.23
73824;BME280;62154;54.914;73.444;2022-12-16T08:16:00;102642.06;;;-22.18;65.59
73824;BME280;62154;54.914;73.444;2022-12-16T08:18:46;102635.28;;;-22.09;66.23
73824;BME280;62154;54.914;73.444;2022-12-16T08:21:42;102628.41;;;-22.04;66.16
73824;BME280;62154;54.914;73.444;2022-12-16T08:24:27;102644.06;;;-21.77;66.39
73824;BME280;62154;54.914;73.444;2022-12-16T08:27:13;102581.94;;;-22.04;65.22
73824;BME280;62154;54.914;73.444;2022-12-16T08:30:09;102642.31;;;-21.76;64.86
73824;BME280;62154;54.914;73.444;2022-12-16T08:33:00;102564.69;;;-22.26;64.49
73824;BME280;62154;54.914;73.444;2022-12-16T08:35:49;102639.28;;;-21.92;64.37
73824;BME280;62154;54.914;73.444;2022-12-16T08:38:39;102636.31;;;-22.04;64.31
73824;BME280;62154;54.914;73.444;2022-12-16T08:41:26;102633.34;;;-22.15;64.74
73824;BME280;62154;54.914;73.444;2022-12-16T08:44:12;102653.56;;;-22.14;64.61
73824;BME280;62154;54.914;73.444;2022-12-16T08:46:57;102651.91;;;-22.10;65.11
73824;BME280;62154;54.914;73.444;2022-12-16T08:49:48;102628.03;;;-22.18;65.21
73824;BME280;62154;54.914;73.444;2022-12-16T08:52:38;102637.94;;;-22.08;65.51
73824;BME280;62154;54.914;73.444;2022-12-16T08:55:24;102491.81;;;-22.95;65.22
73824;BME280;62154;54.914;73.444;2022-12-16T08:58:19;102639.88;;;-22.02;65.74
73824;BME280;62154;54.914;73.444;2022-12-16T09:01:05;102646.91;;;-22.01;65.17
73824;BME280;62154;54.914;73.444;2022-12-16T09:03:55;102653.88;;;-22.03;65.10
73824;BME280;62154;54.914;73.444;2022-12-16T09:06:46;102649.53;;;-22.01;65.11
73824;BME280;62154;54.914;73.444;2022-12-16T09:09:33;102639.00;;;-22.01;65.41
73824;BME280;62154;54.914;73.444;2022-12-16T09:12:26;102651.44;;;-21.95;65.69
73824;BME280;62154;54.914;73.444;2022-12-16T09:15:17;102559.66;;;-22.52;65.37
73824;BME280;62154;54.914;73.444;2022-12-16T09:18:03;102643.25;;;-22.06;65.31
73824;BME280;62154;54.914;73.444;2022-12-16T09:20:50;102635.56;;;-21.98;65.37
73824;BME280;62154;54.914;73.444;2022-12-16T09:23:36;102633.88;;;-21.96;65.33
73824;BME280;62154;54.914;73.444;2022-12-16T09:26:22;102631.09;;;-22.01;65.14
73824;BME280;62154;54.914;73.444;2022-12-16T09:29:07;102619.28;;;-22.17;65.39
73824;BME280;62154;54.914;73.444;2022-12-16T09:32:03;102653.66;;;-22.11;65.30
73824;BME280;62154;54.914;73.444;2022-12-16T09:34:49;102619.66;;;-22.03;65.88
73824;BME280;62154;54.914;73.444;2022-12-16T09:37:46;102605.53;;;-22.07;65.19
73824;BME280;62154;54.914;73.444;2022-12-16T09:40:32;102610.06;;;-22.01;65.48
73824;BME280;62154;54.914;73.444;2022-12-16T09:43:54;102618.91;;;-21.99;65.32
73824;BME280;62154;54.914;73.444;2022-12-16T09:47:05;102601.25;;;-22.03;65.54
73824;BME280;62154;54.914;73.444;2022-12-16T09:49:55;102598.69;;;-22.00;65.56
73824;BME280;62154;54.914;73.444;2022-12-16T09:52:56;102608.47;;;-21.96;65.96
73824;BME280;62154;54.914;73.444;2022-12-16T09:55:44;102594.44;;;-21.95;65.98
73824;BME280;62154;54.914;73.444;2022-12-16T09:58:50;102608.59;;;-21.90;65.83
73824;BME280;62154;54.914;73.444;2022-12-16T10:01:38;102530.47;;;-22.27;65.83
73824;BME280;62154;54.914;73.444;2022-12-16T10:04:29;102596.56;;;-21.81;66.22
73824;BME280;62154;54.914;73.444;2022-12-16T10:07:21;102595.91;;;-21.73;65.63
73824;BME280;62154;54.914;73.444;2022-12-16T10:13:32;102508.59;;;-22.26;65.08
73824;BME280;62154;54.914;73.444;2022-12-16T10:16:36;102527.19;;;-22.19;65.62
73824;BME280;62154;54.914;73.444;2022-12-16T10:19:46;102608.16;;;-21.73;65.67
73824;BME280;62154;54.914;73.444;2022-12-16T10:26:01;102604.34;;;-21.85;66.02
73824;BME280;62154;54.914;73.444;2022-12-16T10:29:15;102529.53;;;-22.29;65.84
73824;BME280;62154;54.914;73.444;2022-12-16T10:32:34;102613.38;;;-21.75;66.00
73824;BME280;62154;54.914;73.444;2022-12-16T10:35:34;102611.41;;;-21.84;65.96
73824;BME280;62154;54.914;73.444;2022-12-16T10:38:30;102565.66;;;-22.22;65.74
73824;BME280;62154;54.914;73.444;2022-12-16T10:41:22;102614.69;;;-21.92;65.87
73824;BME280;62154;54.914;73.444;2022-12-16T10:47:24;102601.28;;;-22.02;66.16
73824;BME280;62154;54.914;73.444;2022-12-16T10:50:14;102603.72;;;-22.09;65.95
73824;BME280;62154;54.914;73.444;2022-12-16T10:53:03;102612.56;;;-22.07;66.45
73824;BME280;62154;54.914;73.444;2022-12-16T10:59:05;102607.19;;;-22.10;67.12
73824;BME280;62154;54.914;73.444;2022-12-16T11:04:59;102634.72;;;-21.97;66.84
73824;BME280;62154;54.914;73.444;2022-12-16T11:07:54;102618.56;;;-22.11;67.16
73824;BME280;62154;54.914;73.444;2022-12-16T11:10:51;102639.06;;;-21.99;67.36
73824;BME280;62154;54.914;73.444;2022-12-16T11:13:36;102623.91;;;-22.08;67.67
73824;BME280;62154;54.914;73.444;2022-12-16T11:16:27;102633.00;;;-21.97;67.33
73824;BME280;62154;54.914;73.444;2022-12-16T11:19:29;102636.06;;;-22.13;67.32
73824;BME280;62154;54.914;73.444;2022-12-16T11:22:18;102644.22;;;-22.03;67.56
73824;BME280;62154;54.914;73.444;2022-12-16T11:25:12;102626.41;;;-22.13;67.67
73824;BME280;62154;54.914;73.444;2022-12-16T11:28:15;102657.38;;;-22.03;67.42
73824;BME280;62154;54.914;73.444;2022-12-16T11:31:13;102652.06;;;-22.06;67.38
73824;BME280;62154;54.914;73.444;2022-12-16T11:34:01;102584.16;;;-22.53;67.57
73824;BME280;62154;54.914;73.444;2022-12-16T11:36:58;102670.44;;;-22.07;67.55
73824;BME280;62154;54.914;73.444;2022-12-16T11:39:44;102651.22;;;-22.05;67.93
73824;BME280;62154;54.914;73.444;2022-12-16T11:42:31;102575.63;;;-22.44;67.88
73824;BME280;62154;54.914;73.444;2022-12-16T11:45:26;102649.50;;;-22.03;67.63
73824;BME280;62154;54.914;73.444;2022-12-16T11:48:33;102656.22;;;-22.12;67.64
73824;BME280;62154;54.914;73.444;2022-12-16T11:51:24;102639.53;;;-22.14;67.59
73824;BME280;62154;54.914;73.444;2022-12-16T11:54:27;102651.09;;;-22.08;67.68
73824;BME280;62154;54.914;73.444;2022-12-16T11:57:30;102647.69;;;-22.04;68.01
73824;BME280;62154;54.914;73.444;2022-12-16T12:00:21;102617.53;;;-22.17;67.84
73824;BME280;62154;54.914;73.444;2022-12-16T12:03:11;102635.41;;;-22.05;68.04
73824;BME280;62154;54.914;73.444;2022-12-16T12:09:16;102636.53;;;-21.95;68.02
73824;BME280;62154;54.914;73.444;2022-12-16T12:18:23;102612.63;;;-22.04;67.58
73824;BME280;62154;54.914;73.444;2022-12-16T12:21:25;102603.78;;;-22.06;67.76
73824;BME280;62154;54.914;73.444;2022-12-16T12:31:39;102632.47;;;-21.84;68.10
73824;BME280;62154;54.914;73.444;2022-12-16T12:37:51;102622.13;;;-21.76;67.59
73824;BME280;62154;54.914;73.444;2022-12-16T12:41:04;102626.56;;;-21.75;67.85
73824;BME280;62154;54.914;73.444;2022-12-16T12:44:03;102622.22;;;-21.73;68.10
73824;BME280;62154;54.914;73.444;2022-12-16T12:47:05;102624.84;;;-21.74;67.94
73824;BME280;62154;54.914;73.444;2022-12-16T12:50:02;102621.06;;;-21.84;68.25
73824;BME280;62154;54.914;73.444;2022-12-16T12:55:48;102540.91;;;-22.29;67.43
73824;BME280;62154;54.914;73.444;2022-12-16T12:58:37;102625.19;;;-21.94;67.72
73824;BME280;62154;54.914;73.444;2022-12-16T13:01:25;102610.56;;;-22.16;68.05
73824;BME280;62154;54.914;73.444;2022-12-16T13:04:19;102540.31;;;-22.54;68.24
73824;BME280;62154;54.914;73.444;2022-12-16T13:07:06;102626.78;;;-21.99;68.55
73824;BME280;62154;54.914;73.444;2022-12-16T13:10:17;102632.16;;;-21.96;68.58
73824;BME280;62154;54.914;73.444;2022-12-16T13:16:10;102606.03;;;-21.88;68.67
73824;BME280;62154;54.914;73.444;2022-12-16T13:19:43;102604.22;;;-21.91;68.26
73824;BME280;62154;54.914;73.444;2022-12-16T13:22:35;102518.41;;;-22.54;67.74
73824;BME280;62154;54.914;73.444;2022-12-16T13:25:50;102601.91;;;-22.12;67.99
73824;BME280;62154;54.914;73.444;2022-12-16T13:28:40;102516.88;;;-22.76;67.89
73824;BME280;62154;54.914;73.444;2022-12-16T13:31:28;102569.44;;;-22.46;68.23
73824;BME280;62154;54.914;73.444;2022-12-16T13:37:04;102593.31;;;-22.38;68.32
73824;BME280;62154;54.914;73.444;2022-12-16T13:43:52;102588.72;;;-22.45;68.23
73824;BME280;62154;54.914;73.444;2022-12-16T13:46:47;102481.94;;;-23.04;68.03
73824;BME280;62154;54.914;73.444;2022-12-16T13:55:59;102574.94;;;-22.67;68.47
73824;BME280;62154;54.914;73.444;2022-12-16T13:58:57;102564.94;;;-22.80;68.19
73824;BME280;62154;54.914;73.444;2022-12-16T14:01:51;102571.00;;;-22.83;68.41
73824;BME280;62154;54.914;73.444;2022-12-16T14:04:52;102555.66;;;-22.98;68.56
73824;BME280;62154;54.914;73.444;2022-12-16T14:07:40;102484.16;;;-23.49;68.51
73824;BME280;62154;54.914;73.444;2022-12-16T14:10:33;102579.19;;;-23.01;68.96
73824;BME280;62154;54.914;73.444;2022-12-16T14:13:32;102539.38;;;-23.17;69.14
73824;BME280;62154;54.914;73.444;2022-12-16T14:25:22;102540.84;;;-22.96;69.45
73824;BME280;62154;54.914;73.444;2022-12-16T14:28:38;102537.50;;;-22.90;69.39
73824;BME280;62154;54.914;73.444;2022-12-16T14:31:36;102530.69;;;-22.84;69.38
73824;BME280;62154;54.914;73.444;2022-12-16T14:34:23;102554.66;;;-22.73;69.51
73824;BME280;62154;54.914;73.444;2022-12-16T14:37:34;102502.00;;;-22.76;69.31
73824;BME280;62154;54.914;73.444;2022-12-16T14:40:32;102525.72;;;-22.74;68.75
73824;BME280;62154;54.914;73.444;2022-12-16T14:43:24;102505.72;;;-22.69;68.96
73824;BME280;62154;54.914;73.444;2022-12-16T14:46:37;102503.97;;;-22.69;68.89
73824;BME280;62154;54.914;73.444;2022-12-16T14:49:28;102503.16;;;-22.66;69.19
73824;BME280;62154;54.914;73.444;2022-12-16T14:52:21;102516.44;;;-22.61;69.77
73824;BME280;62154;54.914;73.444;2022-12-16T14:55:16;102442.78;;;-22.95;69.53
73824;BME280;62154;54.914;73.444;2022-12-16T14:58:09;102491.03;;;-22.61;69.53
73824;BME280;62154;54.914;73.444;2022-12-16T15:01:34;102491.97;;;-22.59;69.48
73824;BME280;62154;54.914;73.444;2022-12-16T15:04:21;102485.06;;;-22.55;69.63
73824;BME280;62154;54.914;73.444;2022-12-16T15:07:21;102478.81;;;-22.59;69.56
73824;BME280;62154;54.914;73.444;2022-12-16T15:10:12;102473.56;;;-22.59;69.73
73824;BME280;62154;54.914;73.444;2022-12-16T15:12:59;102463.84;;;-22.63;70.03
73824;BME280;62154;54.914;73.444;2022-12-16T15:15:46;102479.03;;;-22.51;69.84
73824;BME280;62154;54.914;73.444;2022-12-16T15:18:42;102455.25;;;-22.56;69.95
73824;BME280;62154;54.914;73.444;2022-12-16T15:21:32;102465.06;;;-22.48;69.99
73824;BME280;62154;54.914;73.444;2022-12-16T15:24:22;102465.25;;;-22.42;70.05
73824;BME280;62154;54.914;73.444;2022-12-16T15:30:34;102458.56;;;-22.28;70.01
73824;BME280;62154;54.914;73.444;2022-12-16T15:33:27;102418.59;;;-22.50;69.53
73824;BME280;62154;54.914;73.444;2022-12-16T15:39:22;102465.75;;;-22.21;69.24
73824;BME280;62154;54.914;73.444;2022-12-16T15:45:19;102458.50;;;-22.31;69.39
73824;BME280;62154;54.914;73.444;2022-12-16T15:48:32;102415.66;;;-22.62;70.01
73824;BME280;62154;54.914;73.444;2022-12-16T15:51:27;102452.38;;;-22.30;70.07